General Mariano Escobedo International Airport
MMMY : now visible

Airfield :











YOU CAN JOIN US ON...

 
LOGIN :

Register | Disclaimer

   EN    FR    IT 

 









Legend :    VFR   Marginal VFR   IFR   Intensive IFR   Very Intensive IFR
Visi :
Ceiling :
>= 8 km
>= 3000ft
5 to 8 km
1000 to 3000 ft
1500m to 5 km
500 to 1000 ft
800 to 1500m
200 to 500 ft
< 800m
< 200 ft
Symbols :   Thunderstorms  Fog  Heavy snow  Heavy precipitations  Wind > 20 kt







- Airport Elevation : 1278 ft
- IATA code : MTY


MMMY - General Mariano Escobedo International

CURRENT METAR :
  • 230840Z 10007KT 10SM SCT050 OVC070 21/18 A2987 RMK SLP/// 5//// 9// 8/57/

EXPIRED METARs :
  • 230741Z 11005KT 10SM BKN050 BKN200 20/17 A2990 RMK 8/501
  • 230640Z 00000KT 10SM BKN200 21/17 A2991 RMK 8/001

TAF TAF MMMY
Valid from the 23 at 06:00 until the 24 at 12:00 UTC


230449Z 2306/2412 12007KT P6SM BKN250 TX28/2321Z TN15/2312Z
TEMPO 2311/2315 5SM HZ BKN015
FM231800 12012KT P6SM SCT025 BKN080 BKN250
TEMPO 2322/2402 BKN020
FM240600 12006KT P6SM BKN030 BKN080
FM241000 09005KT 6SM HZ BKN020
MMFR FIR / North America



MET'MAP, your aeronautical weather chart ! - Copyright ORBIFLY December 2007 - Disclaimer

ORBIFLY MET'MAP TEAM :

Programming & Development : Alexandra Zaïnal
Concept & Development : Baudouin d'Aumeries
Co-Development & Prog : Marc-Olivier Méhu
Technical & hardware support : Manuel Goepfert

Contact : metmap@orbifly.com




SOURCES & CREDITS :

   NOAA       Earth
Advisory